Time;durP1;ratioP1;P1;durP2;ratioP2;P2;SDS_P1;SDS_P2;PMS_P1;PMS_P2;Temp;Humidity;BMP_temperature;BMP_pressure;BME280_temperature;BME280_humidity;BME280_pressure;Samples;Min_cycle;Max_cycle;Signal;HPM_P1;HPM_P2
2020/12/27 06:46:28;;;;;;;6.97;6.25;;;1.30;99.90;;;;;;5038600;28;20374;-64
2020/12/27 06:49:10;;;;;;;7.10;6.20;;;-0.10;99.90;;;;;;5039458;28;20030;-64
2020/12/27 06:51:43;;;;;;;9.93;6.47;;;-0.50;99.90;;;;;;5032598;28;20032;-64
2020/12/27 06:54:10;;;;;;;7.45;6.22;;;-0.70;99.90;;;;;;5036380;28;20024;-64
2020/12/27 06:56:41;;;;;;;7.47;6.45;;;-0.60;99.90;;;;;;5033156;28;20044;-65
2020/12/27 06:59:07;;;;;;;8.02;7.07;;;-0.70;99.90;;;;;;5034716;28;20025;-64
2020/12/27 07:01:33;;;;;;;7.90;7.07;;;-0.70;99.90;;;;;;5033629;28;20029;-64
2020/12/27 07:04:11;;;;;;;10.05;6.78;;;-0.70;99.90;;;;;;5041682;28;20033;-65
2020/12/27 07:06:45;;;;;;;8.07;7.22;;;-0.90;99.90;;;;;;5039799;28;20122;-65
2020/12/27 07:09:10;;;;;;;8.15;6.88;;;-0.90;99.90;;;;;;5039277;28;20028;-65
2020/12/27 07:11:36;;;;;;;7.95;7.13;;;-1.00;99.90;;;;;;5030108;28;20406;-65
2020/12/27 07:14:03;;;;;;;8.77;6.78;;;-0.90;99.90;;;;;;5043511;28;20041;-65
2020/12/27 07:16:43;;;;;;;9.88;7.03;;;-1.00;99.90;;;;;;5032166;28;20524;-66
2020/12/27 07:19:14;;;;;;;10.75;7.72;;;-0.90;99.90;;;;;;5030679;28;20024;-65
2020/12/27 07:21:40;;;;;;;7.70;6.70;;;-0.90;99.90;;;;;;5029693;28;20380;-64
2020/12/27 07:24:05;;;;;;;13.95;7.53;;;-0.90;99.90;;;;;;5035107;28;20025;-64
2020/12/27 07:26:37;;;;;;;12.48;6.85;;;-0.90;99.90;;;;;;5031737;28;20037;-64
2020/12/27 07:29:07;;;;;;;10.20;6.30;;;-0.80;99.90;;;;;;5034604;28;20036;-65
2020/12/27 07:31:34;;;;;;;8.98;6.95;;;-0.70;99.90;;;;;;5034465;28;20029;-65
2020/12/27 07:33:59;;;;;;;8.43;6.25;;;-0.70;99.90;;;;;;5050836;28;20040;-65
2020/12/27 07:36:26;;;;;;;8.43;7.13;;;-0.70;99.90;;;;;;5026482;28;20033;-64
2020/12/27 07:38:51;;;;;;;8.63;6.82;;;-0.80;99.90;;;;;;5035327;28;20516;-66
2020/12/27 07:41:21;;;;;;;8.63;7.70;;;-0.70;99.90;;;;;;5033687;28;20120;-67
2020/12/27 07:43:47;;;;;;;12.05;7.10;;;-0.80;99.90;;;;;;5033297;28;20026;-66
2020/12/27 07:46:17;;;;;;;13.13;8.55;;;-0.70;99.90;;;;;;5033862;28;20092;-66
2020/12/27 07:48:43;;;;;;;9.88;7.55;;;-0.90;99.90;;;;;;5035433;28;20018;-66
2020/12/27 07:51:12;;;;;;;11.45;7.97;;;-0.80;99.90;;;;;;5035888;28;20033;-66
2020/12/27 07:53:38;;;;;;;25.23;18.10;;;-1.00;99.90;;;;;;5041608;28;20025;-66
2020/12/27 07:56:05;;;;;;;24.73;15.85;;;-0.90;99.90;;;;;;5037042;28;20118;-66
2020/12/27 07:58:31;;;;;;;45.35;25.63;;;-1.00;99.90;;;;;;5036351;28;20037;-66
2020/12/27 08:00:56;;;;;;;32.53;17.83;;;-1.00;99.90;;;;;;5032233;28;20515;-66
2020/12/27 08:03:23;;;;;;;22.85;14.90;;;-0.90;99.90;;;;;;5028669;28;20037;-66
2020/12/27 08:05:48;;;;;;;18.50;12.20;;;-0.90;99.90;;;;;;5024660;28;20029;-66
2020/12/27 08:08:14;;;;;;;17.98;11.43;;;-1.00;99.90;;;;;;5030563;28;20037;-66
2020/12/27 08:10:40;;;;;;;12.77;9.90;;;-0.80;99.90;;;;;;5030692;28;20029;-66
2020/12/27 08:13:07;;;;;;;18.48;10.73;;;-0.90;99.90;;;;;;5030650;28;20539;-64
2020/12/27 08:15:40;;;;;;;15.88;10.55;;;-0.80;99.90;;;;;;5027043;28;20132;-64
2020/12/27 08:18:08;;;;;;;14.80;10.13;;;-0.60;99.90;;;;;;5035134;28;20017;-65
2020/12/27 08:20:54;;;;;;;14.40;10.48;;;-0.40;99.90;;;;;;5030707;28;20090;-64
2020/12/27 08:23:20;;;;;;;9.70;8.68;;;-0.50;99.90;;;;;;5032143;28;20509;-64
2020/12/27 08:25:55;;;;;;;15.38;10.55;;;-0.70;99.90;;;;;;5034482;28;20037;-64
2020/12/27 08:28:21;;;;;;;14.02;9.90;;;-0.70;99.90;;;;;;5036187;28;20025;-64
2020/12/27 08:30:47;;;;;;;13.48;10.18;;;-1.10;99.90;;;;;;5030756;28;20043;-64
2020/12/27 08:33:18;;;;;;;10.48;9.38;;;-0.90;99.90;;;;;;5034730;28;20041;-64
2020/12/27 08:35:46;;;;;;;10.43;8.15;;;-0.80;99.90;;;;;;5029842;28;20038;-65
2020/12/27 08:38:26;;;;;;;11.75;8.90;;;-0.80;99.90;;;;;;5021086;28;20021;-64
2020/12/27 08:41:01;;;;;;;10.20;8.23;;;-0.70;99.90;;;;;;5027086;28;20064;-64
2020/12/27 08:43:42;;;;;;;10.48;8.07;;;-0.80;99.90;;;;;;5036537;28;20490;-64
2020/12/27 08:46:10;;;;;;;9.93;8.07;;;-0.70;99.90;;;;;;5016477;28;20056;-64
2020/12/27 08:48:42;;;;;;;8.73;7.57;;;-0.80;99.90;;;;;;5020039;28;20094;-64
2020/12/27 08:51:12;;;;;;;9.13;6.80;;;-0.60;99.90;;;;;;5019668;28;20115;-65
2020/12/27 08:53:44;;;;;;;9.38;8.10;;;-0.70;99.90;;;;;;5026252;28;20175;-65
2020/12/27 08:56:11;;;;;;;8.25;7.38;;;-0.80;99.90;;;;;;5020260;28;20030;-65
2020/12/27 08:58:37;;;;;;;9.85;7.03;;;-0.60;99.90;;;;;;5022397;28;20059;-66
2020/12/27 09:01:19;;;;;;;10.88;7.45;;;-0.60;99.90;;;;;;5023454;28;20040;-63
2020/12/27 09:03:44;;;;;;;12.00;7.45;;;-0.60;99.90;;;;;;5024225;28;20022;-64
2020/12/27 09:06:14;;;;;;;9.73;7.30;;;-0.50;99.90;;;;;;5029901;28;20018;-63
2020/12/27 09:08:39;;;;;;;7.68;6.60;;;-0.70;99.90;;;;;;5031709;28;20029;-64
2020/12/27 09:11:05;;;;;;;8.63;6.72;;;-0.60;99.90;;;;;;5011922;28;20129;-65
2020/12/27 09:13:41;;;;;;;11.40;7.30;;;-0.50;99.90;;;;;;5027564;28;20523;-65
2020/12/27 09:16:07;;;;;;;11.35;7.38;;;-0.50;99.90;;;;;;5016189;28;20037;-64
2020/12/27 09:18:36;;;;;;;9.38;6.22;;;-0.40;99.90;;;;;;5037197;28;20660;-65
2020/12/27 09:21:03;;;;;;;7.68;6.82;;;-0.40;99.90;;;;;;5016977;28;20037;-64
2020/12/27 09:23:29;;;;;;;7.68;6.32;;;-0.30;99.90;;;;;;5019500;28;20493;-65
2020/12/27 09:26:08;;;;;;;6.57;5.93;;;0.00;99.90;;;;;;5029731;28;20022;-65
2020/12/27 09:28:36;;;;;;;8.18;6.38;;;-0.10;99.90;;;;;;5025471;28;20044;-65
2020/12/27 09:31:06;;;;;;;7.95;6.10;;;-0.20;99.90;;;;;;5034141;28;20109;-65
2020/12/27 09:33:38;;;;;;;8.15;6.15;;;-0.10;99.90;;;;;;5016218;28;20740;-67
2020/12/27 09:36:06;;;;;;;11.57;5.78;;;0.00;99.90;;;;;;5007577;28;20409;-64
2020/12/27 09:38:39;;;;;;;7.55;6.70;;;0.00;99.90;;;;;;5005981;28;20025;-64
2020/12/27 09:41:10;;;;;;;7.95;6.75;;;0.00;99.90;;;;;;5029395;28;20040;-64
2020/12/27 09:43:46;;;;;;;12.75;7.00;;;0.00;99.90;;;;;;5025198;28;20394;-64
2020/12/27 09:46:11;;;;;;;17.15;9.88;;;-0.10;99.90;;;;;;5019091;28;20054;-65
2020/12/27 09:48:37;;;;;;;10.15;8.30;;;0.10;99.90;;;;;;5021799;28;20041;-65
2020/12/27 09:51:15;;;;;;;8.40;7.57;;;0.00;99.90;;;;;;5023790;28;20029;-66
2020/12/27 09:53:41;;;;;;;8.70;6.75;;;0.20;99.90;;;;;;5019891;28;20025;-65
2020/12/27 09:56:07;;;;;;;6.80;6.20;;;0.20;99.90;;;;;;5023636;28;20116;-65
2020/12/27 09:58:33;;;;;;;7.35;6.57;;;0.40;99.90;;;;;;5023510;28;20013;-68
2020/12/27 10:00:58;;;;;;;6.68;6.05;;;0.50;99.90;;;;;;5024599;28;20036;-64
2020/12/27 10:03:24;;;;;;;9.15;6.65;;;0.50;99.90;;;;;;5020668;28;20036;-64
2020/12/27 10:05:49;;;;;;;8.18;7.35;;;0.40;99.90;;;;;;5018978;28;20037;-66
2020/12/27 10:08:15;;;;;;;7.32;6.45;;;0.40;99.90;;;;;;5028583;28;20539;-65
2020/12/27 10:10:41;;;;;;;8.75;7.03;;;0.40;99.90;;;;;;5025496;28;20037;-65
2020/12/27 10:13:06;;;;;;;11.02;7.78;;;0.50;99.90;;;;;;5028745;28;20040;-65
2020/12/27 10:15:32;;;;;;;8.63;6.45;;;0.50;99.90;;;;;;5023210;28;20041;-65
2020/12/27 10:17:57;;;;;;;11.05;7.90;;;0.80;99.90;;;;;;5023197;28;20021;-65
2020/12/27 10:20:23;;;;;;;9.45;7.60;;;0.70;99.90;;;;;;5016301;28;20034;-65
2020/12/27 10:22:49;;;;;;;10.98;8.27;;;0.90;99.90;;;;;;5015268;28;20390;-67
2020/12/27 10:25:15;;;;;;;15.43;9.93;;;0.90;99.90;;;;;;5017492;28;20029;-67
2020/12/27 10:27:42;;;;;;;9.13;7.93;;;0.80;99.90;;;;;;5016187;28;20022;-66
2020/12/27 10:30:07;;;;;;;7.40;6.63;;;0.80;99.90;;;;;;5018087;28;20445;-66
2020/12/27 10:32:33;;;;;;;7.50;6.22;;;0.90;99.90;;;;;;5017958;28;20072;-63
2020/12/27 10:34:59;;;;;;;9.95;7.28;;;0.90;99.90;;;;;;5017059;28;20041;-63
2020/12/27 10:37:24;;;;;;;9.60;6.78;;;0.80;99.90;;;;;;5035356;28;20108;-63
2020/12/27 10:39:50;;;;;;;7.68;6.93;;;1.00;99.90;;;;;;5029717;28;20033;-64
2020/12/27 10:42:15;;;;;;;10.68;6.40;;;1.00;99.90;;;;;;5017158;28;20571;-63
2020/12/27 10:44:41;;;;;;;8.88;7.38;;;1.10;99.90;;;;;;5027329;28;20033;-66
2020/12/27 10:47:08;;;;;;;7.30;6.70;;;1.20;99.90;;;;;;5015577;28;20058;-62
2020/12/27 10:49:33;;;;;;;8.38;6.80;;;1.30;99.90;;;;;;5016668;28;20075;-62
2020/12/27 10:51:59;;;;;;;9.50;7.10;;;1.30;99.90;;;;;;5021310;28;20025;-66
2020/12/27 10:54:25;;;;;;;8.43;6.18;;;1.40;99.90;;;;;;5015645;28;20041;-63
2020/12/27 10:56:50;;;;;;;8.80;7.20;;;1.30;99.90;;;;;;5015782;28;20446;-63
2020/12/27 10:59:16;;;;;;;9.70;8.10;;;1.50;99.90;;;;;;5015874;28;20037;-62
2020/12/27 11:01:46;;;;;;;7.93;6.75;;;1.60;99.90;;;;;;5019284;28;20125;-63
2020/12/27 11:04:12;;;;;;;7.85;5.82;;;1.60;99.90;;;;;;5037720;28;20064;-63
2020/12/27 11:06:38;;;;;;;6.72;5.55;;;1.80;99.90;;;;;;5016810;28;20025;-63
2020/12/27 11:09:04;;;;;;;8.57;7.40;;;1.60;99.90;;;;;;5023768;28;20584;-63
2020/12/27 11:11:30;;;;;;;6.45;5.82;;;1.70;99.90;;;;;;5020798;28;20097;-63
2020/12/27 11:13:55;;;;;;;7.95;7.15;;;1.70;99.90;;;;;;5037074;28;20025;-63
2020/12/27 11:16:21;;;;;;;7.20;6.45;;;1.90;99.90;;;;;;5028263;28;20042;-62
2020/12/27 11:18:47;;;;;;;6.70;5.90;;;2.00;99.90;;;;;;5035954;28;20040;-63
2020/12/27 11:21:13;;;;;;;8.02;5.55;;;2.00;99.90;;;;;;5020847;28;20072;-62
2020/12/27 11:23:38;;;;;;;8.90;7.18;;;2.00;99.90;;;;;;5025506;28;20486;-63
2020/12/27 11:26:04;;;;;;;11.80;6.97;;;2.00;99.90;;;;;;5025048;28;20072;-63
2020/12/27 11:28:30;;;;;;;7.60;6.50;;;2.20;99.90;;;;;;5026479;28;20026;-63
2020/12/27 11:30:56;;;;;;;7.22;6.50;;;2.30;99.90;;;;;;5028776;28;20024;-68
2020/12/27 11:33:21;;;;;;;8.48;6.10;;;2.30;99.90;;;;;;5037804;28;20028;-63
2020/12/27 11:35:47;;;;;;;8.48;5.32;;;2.20;99.90;;;;;;5030822;28;20041;-63
2020/12/27 11:38:13;;;;;;;5.07;3.90;;;2.30;99.90;;;;;;5026022;28;20571;-61
2020/12/27 11:40:38;;;;;;;7.00;3.65;;;2.50;99.90;;;;;;5029654;28;20175;-63
2020/12/27 11:43:04;;;;;;;5.20;4.70;;;2.70;99.90;;;;;;5026698;28;20037;-63
2020/12/27 11:45:30;;;;;;;4.75;4.35;;;2.70;99.90;;;;;;5028182;28;20498;-63
2020/12/27 11:47:55;;;;;;;4.97;3.67;;;2.80;99.90;;;;;;5023841;28;20034;-66
2020/12/27 11:50:21;;;;;;;3.90;3.50;;;2.90;99.90;;;;;;5026715;28;20033;-64
2020/12/27 11:52:46;;;;;;;5.03;3.90;;;2.90;99.90;;;;;;5029825;28;20044;-63
2020/12/27 11:55:12;;;;;;;6.70;6.10;;;3.10;99.90;;;;;;5022464;28;20056;-60
2020/12/27 11:57:38;;;;;;;4.15;3.72;;;3.10;99.90;;;;;;5029619;28;20052;-61
2020/12/27 12:00:06;;;;;;;4.82;3.75;;;3.20;99.90;;;;;;5029483;28;20383;-64
2020/12/27 12:02:32;;;;;;;4.00;3.40;;;3.30;99.90;;;;;;5023863;28;20031;-63
2020/12/27 12:04:58;;;;;;;3.97;3.38;;;3.40;99.90;;;;;;5031712;28;20510;-61
2020/12/27 12:07:24;;;;;;;3.05;2.75;;;3.30;99.90;;;;;;5023091;28;20163;-63
2020/12/27 12:09:49;;;;;;;5.57;2.85;;;3.50;99.90;;;;;;5025838;28;20406;-62
2020/12/27 12:12:15;;;;;;;3.10;2.55;;;3.70;99.90;;;;;;5016896;28;20853;-70
2020/12/27 12:14:40;;;;;;;1.40;1.30;;;3.70;99.90;;;;;;5017597;28;20034;-64
2020/12/27 12:17:07;;;;;;;1.50;1.33;;;3.90;99.90;;;;;;5017717;28;20026;-61
2020/12/27 12:19:32;;;;;;;2.38;2.00;;;3.90;99.90;;;;;;5034600;28;20072;-60
2020/12/27 12:21:58;;;;;;;3.28;1.98;;;3.80;99.90;;;;;;5025547;28;20029;-60
2020/12/27 12:24:23;;;;;;;2.03;1.92;;;4.10;99.90;;;;;;5025919;28;20048;-69
2020/12/27 12:26:50;;;;;;;1.60;1.40;;;4.10;99.90;;;;;;5028620;28;20033;-60
2020/12/27 12:29:15;;;;;;;1.80;1.60;;;4.00;99.90;;;;;;5030665;28;20040;-60
2020/12/27 12:31:41;;;;;;;2.28;1.80;;;4.20;99.90;;;;;;5017983;28;20390;-60
2020/12/27 12:34:07;;;;;;;2.03;1.67;;;4.20;99.90;;;;;;5022843;28;20033;-60
2020/12/27 12:36:34;;;;;;;2.10;1.77;;;4.30;99.90;;;;;;5021465;28;20392;-66
2020/12/27 12:38:59;;;;;;;2.17;1.27;;;4.40;99.90;;;;;;5025779;28;20569;-60
2020/12/27 12:41:26;;;;;;;3.20;1.90;;;4.30;99.90;;;;;;5014348;28;20037;-67
2020/12/27 12:43:53;;;;;;;2.63;1.92;;;4.40;99.90;;;;;;5029583;28;20087;-61
2020/12/27 12:46:21;;;;;;;3.22;2.20;;;4.30;99.90;;;;;;5022584;28;20041;-61
2020/12/27 12:48:48;;;;;;;1.90;1.80;;;4.40;99.90;;;;;;5028959;28;20033;-61
2020/12/27 12:51:14;;;;;;;2.15;1.95;;;4.30;99.90;;;;;;5024788;28;20095;-61
2020/12/27 12:53:40;;;;;;;4.15;2.67;;;4.50;99.90;;;;;;5019445;28;20120;-62
2020/12/27 12:56:10;;;;;;;2.78;2.58;;;4.50;99.90;;;;;;5012026;28;20037;-66
2020/12/27 12:58:36;;;;;;;3.63;3.10;;;4.60;99.90;;;;;;5023746;28;20490;-60
2020/12/27 13:01:02;;;;;;;2.55;2.20;;;4.50;99.90;;;;;;5020308;28;20048;-60
2020/12/27 13:03:28;;;;;;;2.55;2.20;;;4.60;99.90;;;;;;5028744;28;20417;-61
2020/12/27 13:05:54;;;;;;;56.80;25.65;;;4.60;99.90;;;;;;5027097;28;20037;-61
2020/12/27 13:08:19;;;;;;;5.75;4.97;;;4.60;99.90;;;;;;5027155;28;20033;-61
2020/12/27 13:10:45;;;;;;;6.40;4.85;;;4.70;99.90;;;;;;5027843;28;20033;-61
2020/12/27 13:13:10;;;;;;;3.05;2.75;;;4.60;99.90;;;;;;5036324;28;20374;-61
2020/12/27 13:15:36;;;;;;;3.40;2.35;;;4.70;99.90;;;;;;5042687;28;20037;-61
2020/12/27 13:18:02;;;;;;;5.78;4.32;;;4.70;99.90;;;;;;5029154;28;20043;-61
2020/12/27 13:20:27;;;;;;;7.78;7.00;;;4.60;99.90;;;;;;5023701;28;20386;-61
2020/12/27 13:22:53;;;;;;;4.50;4.10;;;4.80;99.90;;;;;;5034016;28;20212;-60
2020/12/27 13:25:19;;;;;;;6.05;5.32;;;4.80;99.90;;;;;;5035966;28;20115;-61
2020/12/27 13:27:44;;;;;;;3.65;3.33;;;4.70;99.90;;;;;;5019338;28;20445;-61
2020/12/27 13:30:14;;;;;;;3.63;3.17;;;4.70;99.90;;;;;;5030577;28;20033;-61
2020/12/27 13:32:41;;;;;;;6.18;5.03;;;4.70;99.90;;;;;;5028577;28;20041;-60
2020/12/27 13:35:08;;;;;;;5.53;3.50;;;4.70;99.90;;;;;;5049014;28;20040;-61
2020/12/27 13:37:34;;;;;;;5.05;4.03;;;4.70;99.90;;;;;;5037438;28;20025;-61
2020/12/27 13:39:59;;;;;;;4.65;2.80;;;4.70;99.90;;;;;;5036836;28;20523;-62
2020/12/27 13:42:25;;;;;;;6.82;4.53;;;4.80;99.90;;;;;;5028707;28;20042;-61
2020/12/27 13:44:51;;;;;;;5.60;5.10;;;4.70;99.90;;;;;;5044335;28;20322;-67
2020/12/27 13:47:17;;;;;;;6.15;4.68;;;4.70;99.90;;;;;;5033512;28;20092;-61
2020/12/27 13:49:43;;;;;;;5.05;3.95;;;4.60;99.90;;;;;;5050013;28;20035;-61
2020/12/27 13:52:09;;;;;;;7.55;5.55;;;4.70;99.90;;;;;;5042962;28;20276;-61
2020/12/27 13:54:34;;;;;;;4.28;3.88;;;4.70;99.90;;;;;;5040913;28;20136;-60
2020/12/27 13:57:00;;;;;;;2.75;2.35;;;4.90;99.90;;;;;;5034362;28;20033;-61
2020/12/27 13:59:26;;;;;;;7.82;4.47;;;4.80;99.90;;;;;;5039860;28;20036;-61
2020/12/27 14:01:52;;;;;;;11.35;7.70;;;4.80;99.90;;;;;;5036815;28;20041;-60
2020/12/27 14:04:18;;;;;;;11.80;8.20;;;4.80;99.90;;;;;;5041670;28;20021;-61
2020/12/27 14:06:44;;;;;;;8.95;6.10;;;4.80;99.90;;;;;;5059326;28;20198;-68
2020/12/27 14:09:09;;;;;;;9.48;7.32;;;4.80;99.90;;;;;;5037881;28;20045;-66
2020/12/27 14:11:36;;;;;;;3.08;2.42;;;4.90;99.90;;;;;;5046836;28;20032;-61
2020/12/27 14:14:02;;;;;;;3.15;1.90;;;4.90;99.90;;;;;;5041578;28;20056;-60
2020/12/27 14:16:28;;;;;;;2.28;1.75;;;5.10;99.90;;;;;;5052240;28;20040;-62
2020/12/27 14:18:53;;;;;;;3.65;3.15;;;5.00;99.90;;;;;;5037030;28;20047;-60
2020/12/27 14:21:21;;;;;;;3.53;2.67;;;5.20;99.90;;;;;;5033986;28;20030;-62
2020/12/27 14:23:48;;;;;;;1.95;1.52;;;5.20;99.90;;;;;;5038617;28;20025;-61
2020/12/27 14:26:13;;;;;;;3.47;2.55;;;5.10;99.90;;;;;;5039049;28;20034;-60
2020/12/27 14:28:40;;;;;;;5.20;4.80;;;5.10;99.90;;;;;;5042592;28;20064;-61
2020/12/27 14:31:07;;;;;;;2.55;2.17;;;5.00;99.90;;;;;;5041867;28;20081;-73
2020/12/27 14:33:32;;;;;;;3.10;2.80;;;5.20;99.90;;;;;;5041378;28;20021;-64
2020/12/27 14:36:05;;;;;;;11.05;8.20;;;5.40;99.90;;;;;;5050010;28;20508;-61
2020/12/27 14:38:31;;;;;;;3.65;2.00;;;5.40;99.90;;;;;;5041081;28;20029;-61
2020/12/27 14:40:57;;;;;;;3.13;2.92;;;5.40;99.90;;;;;;5035312;28;20079;-61
2020/12/27 14:43:23;;;;;;;3.08;2.78;;;5.60;99.90;;;;;;5035945;28;20036;-61
2020/12/27 14:45:49;;;;;;;3.97;2.15;;;5.40;99.90;;;;;;5036319;28;20048;-60
2020/12/27 14:48:15;;;;;;;3.80;2.80;;;5.60;99.90;;;;;;5039459;28;20044;-62
2020/12/27 14:50:41;;;;;;;3.47;3.17;;;5.70;99.90;;;;;;5038801;28;20025;-60
2020/12/27 14:53:07;;;;;;;5.03;4.53;;;5.80;99.90;;;;;;5036400;28;20029;-67
2020/12/27 14:55:32;;;;;;;3.58;2.20;;;5.80;99.90;;;;;;5042886;28;20033;-72
2020/12/27 14:57:58;;;;;;;4.95;2.35;;;5.90;99.90;;;;;;5041035;28;20378;-61
2020/12/27 15:00:24;;;;;;;2.75;2.38;;;6.10;99.90;;;;;;5035982;28;20009;-61
2020/12/27 15:02:52;;;;;;;2.30;2.10;;;6.00;99.90;;;;;;5031873;28;20041;-60
2020/12/27 15:05:19;;;;;;;2.65;2.10;;;6.00;99.90;;;;;;5036434;28;20014;-61
2020/12/27 15:07:45;;;;;;;4.70;3.00;;;5.70;99.90;;;;;;5036052;28;20366;-61
2020/12/27 15:10:11;;;;;;;2.75;2.13;;;5.60;99.90;;;;;;5043779;28;20132;-61
2020/12/27 15:12:37;;;;;;;4.07;2.67;;;5.60;99.90;;;;;;5038944;28;20035;-61
2020/12/27 15:15:04;;;;;;;4.78;3.53;;;5.60;99.90;;;;;;5035262;28;20044;-61
2020/12/27 15:17:29;;;;;;;4.22;2.53;;;5.50;99.90;;;;;;5033830;28;20025;-72
2020/12/27 15:19:55;;;;;;;2.25;2.05;;;5.60;99.90;;;;;;5032149;28;20028;-61
2020/12/27 15:22:20;;;;;;;3.35;2.30;;;5.50;99.90;;;;;;5035783;28;20037;-60
2020/12/27 15:24:46;;;;;;;2.53;2.30;;;5.50;99.90;;;;;;5047308;28;20059;-60
2020/12/27 15:27:12;;;;;;;4.97;2.88;;;5.50;99.90;;;;;;5037433;28;20080;-62
2020/12/27 15:29:38;;;;;;;3.65;2.80;;;5.40;99.90;;;;;;5045538;28;20028;-60
2020/12/27 15:32:03;;;;;;;4.13;2.92;;;5.40;99.90;;;;;;5054149;28;20025;-60
2020/12/27 15:34:29;;;;;;;3.53;2.63;;;5.40;99.90;;;;;;5039761;28;20668;-61
2020/12/27 15:36:55;;;;;;;4.38;2.30;;;5.30;99.90;;;;;;5052760;28;20524;-60
2020/12/27 15:39:20;;;;;;;2.70;1.77;;;5.20;99.90;;;;;;5041391;28;20036;-61
2020/12/27 15:41:46;;;;;;;5.43;2.17;;;5.30;99.90;;;;;;5050820;28;20461;-62
2020/12/27 15:44:12;;;;;;;2.83;1.90;;;5.30;99.90;;;;;;5050872;28;20017;-61
2020/12/27 15:46:38;;;;;;;5.38;2.78;;;5.20;99.90;;;;;;5038653;28;20083;-62
2020/12/27 15:49:04;;;;;;;3.90;2.75;;;5.10;99.90;;;;;;5042294;28;20021;-61
2020/12/27 15:51:31;;;;;;;3.00;2.70;;;5.10;99.90;;;;;;5038921;28;20088;-61
2020/12/27 15:53:56;;;;;;;2.90;2.22;;;5.20;99.90;;;;;;5042038;28;20021;-61
2020/12/27 15:56:23;;;;;;;2.80;2.50;;;5.20;99.90;;;;;;5041718;28;20132;-62
2020/12/27 15:58:49;;;;;;;3.75;2.85;;;5.20;99.90;;;;;;5029848;28;20343;-61
2020/12/27 16:01:15;;;;;;;3.95;2.70;;;5.20;99.90;;;;;;5041222;28;20029;-61
2020/12/27 16:03:41;;;;;;;2.05;1.85;;;5.20;99.90;;;;;;5041641;28;20036;-63
2020/12/27 16:06:07;;;;;;;4.40;3.35;;;5.00;99.90;;;;;;5055531;28;20043;-61
2020/12/27 16:08:32;;;;;;;4.10;2.97;;;5.00;99.90;;;;;;5043443;28;20029;-61
2020/12/27 16:11:00;;;;;;;4.38;2.60;;;5.10;99.90;;;;;;5035554;28;20498;-61
2020/12/27 16:13:27;;;;;;;2.45;2.25;;;5.10;99.90;;;;;;5037714;28;20112;-60
2020/12/27 16:15:54;;;;;;;3.88;2.80;;;4.90;99.90;;;;;;5038119;28;20048;-62
2020/12/27 16:18:20;;;;;;;2.47;2.22;;;5.10;99.90;;;;;;5040321;28;20029;-60
2020/12/27 16:20:45;;;;;;;2.33;2.00;;;5.10;99.90;;;;;;5046876;28;20033;-63
2020/12/27 16:23:11;;;;;;;3.17;2.38;;;4.90;99.90;;;;;;5047995;28;20028;-69
2020/12/27 16:25:37;;;;;;;7.28;2.72;;;5.00;99.90;;;;;;5039472;28;20030;-61
2020/12/27 16:28:02;;;;;;;7.95;5.22;;;5.10;99.90;;;;;;5033578;28;20103;-61
2020/12/27 16:30:28;;;;;;;5.47;4.22;;;4.90;99.90;;;;;;5034724;28;20108;-60
2020/12/27 16:32:54;;;;;;;6.85;5.88;;;5.00;99.90;;;;;;5037437;28;20025;-61
2020/12/27 16:35:19;;;;;;;4.82;3.40;;;5.00;99.90;;;;;;5038076;28;20559;-62
2020/12/27 16:37:45;;;;;;;4.07;3.67;;;4.90;99.90;;;;;;5042595;28;20085;-60
2020/12/27 16:40:11;;;;;;;3.47;2.88;;;4.80;99.90;;;;;;5046584;28;20382;-63
2020/12/27 16:42:36;;;;;;;3.50;2.75;;;4.80;99.90;;;;;;5053131;28;20040;-63
2020/12/27 16:45:03;;;;;;;3.00;2.67;;;4.70;99.90;;;;;;5049563;28;20053;-61
2020/12/27 16:47:29;;;;;;;4.35;2.75;;;4.70;99.90;;;;;;5042385;28;20104;-60
2020/12/27 16:49:55;;;;;;;3.50;3.10;;;4.80;99.90;;;;;;5035335;28;20056;-61
2020/12/27 16:52:24;;;;;;;4.97;3.33;;;4.80;99.90;;;;;;5030124;28;20625;-61
2020/12/27 16:54:50;;;;;;;8.20;4.30;;;4.80;99.90;;;;;;5031216;28;20045;-68
2020/12/27 16:57:16;;;;;;;6.15;3.58;;;4.80;99.90;;;;;;5035451;28;20476;-60
2020/12/27 16:59:41;;;;;;;4.68;3.60;;;4.70;99.90;;;;;;5031813;28;20049;-62
2020/12/27 17:02:07;;;;;;;4.28;2.92;;;4.70;99.90;;;;;;5029758;28;20022;-62
2020/12/27 17:04:32;;;;;;;3.80;2.95;;;4.70;99.90;;;;;;5035927;28;20547;-63
2020/12/27 17:06:58;;;;;;;5.45;3.67;;;4.70;99.90;;;;;;5028401;28;20021;-62
2020/12/27 17:09:24;;;;;;;3.60;2.90;;;4.70;99.90;;;;;;5031943;28;20411;-63
2020/12/27 17:11:49;;;;;;;3.10;2.80;;;4.80;99.90;;;;;;5028576;28;20013;-63
2020/12/27 17:14:15;;;;;;;6.65;3.40;;;4.80;99.90;;;;;;5033594;28;20037;-64
2020/12/27 17:16:41;;;;;;;5.13;4.20;;;4.80;99.90;;;;;;5026015;28;20041;-70
2020/12/27 17:19:06;;;;;;;9.30;3.78;;;4.80;99.90;;;;;;5028398;28;20038;-64
2020/12/27 17:21:32;;;;;;;7.72;3.85;;;4.90;99.90;;;;;;5021185;28;20026;-65
2020/12/27 17:23:58;;;;;;;4.10;3.08;;;4.90;99.90;;;;;;5033783;28;20029;-64
2020/12/27 17:26:23;;;;;;;2.45;2.25;;;4.80;99.90;;;;;;5037151;28;20084;-64
2020/12/27 17:28:49;;;;;;;3.30;2.13;;;5.00;99.90;;;;;;5030037;28;20091;-63
2020/12/27 17:31:22;;;;;;;3.13;2.83;;;4.90;99.90;;;;;;5030220;28;20028;-64
2020/12/27 17:33:47;;;;;;;5.15;4.63;;;4.90;99.90;;;;;;5032458;28;20037;-64
2020/12/27 17:36:13;;;;;;;5.70;5.15;;;4.90;99.90;;;;;;5032293;28;20044;-63
2020/12/27 17:38:39;;;;;;;31.88;17.85;;;4.80;99.90;;;;;;5025803;28;20504;-64
2020/12/27 17:41:28;;;;;;;27.83;15.00;;;4.70;99.90;;;;;;5114531;27;20327;-73
2020/12/27 17:43:54;;;;;;;7.70;6.38;;;4.80;99.90;;;;;;5107192;28;20030;-63
2020/12/27 17:46:20;;;;;;;6.63;5.65;;;4.90;99.90;;;;;;5106554;28;20042;-63
2020/12/27 17:48:46;;;;;;;7.65;5.65;;;5.00;99.90;;;;;;5100366;28;20488;-65
2020/12/27 17:51:12;;;;;;;8.38;5.80;;;5.00;99.90;;;;;;5102446;28;20054;-69
2020/12/27 17:53:38;;;;;;;7.93;5.78;;;5.10;99.90;;;;;;5102930;28;20099;-74
2020/12/27 17:56:04;;;;;;;8.60;6.22;;;5.10;99.90;;;;;;5103333;28;20036;-64
2020/12/27 17:58:34;;;;;;;6.97;5.18;;;4.90;99.90;;;;;;5102300;28;20503;-67
2020/12/27 18:01:01;;;;;;;5.88;3.22;;;4.80;99.90;;;;;;5100148;28;20519;-64
2020/12/27 18:03:26;;;;;;;7.72;3.50;;;4.80;99.90;;;;;;5103434;28;20012;-72
2020/12/27 18:05:52;;;;;;;7.50;3.92;;;4.90;99.90;;;;;;5102222;28;20034;-71
2020/12/27 18:08:18;;;;;;;9.52;4.63;;;4.90;99.90;;;;;;5100874;28;20034;-66
2020/12/27 18:10:43;;;;;;;4.55;3.85;;;5.10;99.90;;;;;;5102940;28;20542;-65
2020/12/27 18:13:09;;;;;;;4.05;3.53;;;5.00;99.90;;;;;;5096558;28;20023;-63
2020/12/27 18:15:35;;;;;;;6.38;4.63;;;5.00;99.90;;;;;;5096596;28;20036;-63
2020/12/27 18:18:00;;;;;;;5.25;4.72;;;4.90;99.90;;;;;;5104186;28;20031;-63
2020/12/27 18:20:26;;;;;;;6.20;4.20;;;4.90;99.90;;;;;;5107194;28;20043;-63
2020/12/27 18:22:52;;;;;;;4.10;3.70;;;4.90;99.90;;;;;;5102967;28;20016;-63
2020/12/27 18:25:20;;;;;;;5.95;3.90;;;5.00;99.90;;;;;;5108032;28;20216;-64
2020/12/27 18:27:48;;;;;;;6.82;4.50;;;4.90;99.90;;;;;;5106274;28;20450;-71
2020/12/27 18:30:14;;;;;;;10.00;5.43;;;4.80;99.90;;;;;;5106399;28;20081;-65
2020/12/27 18:32:40;;;;;;;8.77;5.15;;;4.90;99.90;;;;;;5106084;28;20020;-67
2020/12/27 18:35:05;;;;;;;4.28;3.20;;;5.00;99.90;;;;;;5104647;28;20028;-64
2020/12/27 18:37:31;;;;;;;4.65;3.20;;;5.00;99.90;;;;;;5106229;28;20032;-63
2020/12/27 18:39:57;;;;;;;4.75;3.58;;;5.10;99.90;;;;;;5104034;28;20073;-64
2020/12/27 18:42:22;;;;;;;4.07;3.67;;;5.10;99.90;;;;;;5103989;28;20077;-63
2020/12/27 18:44:48;;;;;;;6.20;5.28;;;5.10;99.90;;;;;;5086908;28;20032;-64
2020/12/27 18:47:13;;;;;;;3.25;2.50;;;5.10;99.90;;;;;;5113855;28;20027;-64
2020/12/27 18:49:39;;;;;;;4.63;3.45;;;5.10;99.90;;;;;;5086609;28;20038;-64
2020/12/27 18:52:05;;;;;;;4.45;2.85;;;5.00;99.90;;;;;;5095573;28;20035;-64
2020/12/27 18:54:30;;;;;;;3.88;3.47;;;5.00;99.90;;;;;;5084459;28;20415;-65
2020/12/27 18:57:00;;;;;;;7.35;3.85;;;4.90;99.90;;;;;;5102609;28;20030;-65
2020/12/27 18:59:27;;;;;;;5.10;3.95;;;4.90;99.90;;;;;;5089374;28;20583;-64
2020/12/27 19:01:53;;;;;;;5.70;4.03;;;5.00;99.90;;;;;;5095903;28;20028;-63
2020/12/27 19:04:19;;;;;;;7.10;4.47;;;4.90;99.90;;;;;;5086490;28;20031;-64
2020/12/27 19:06:46;;;;;;;7.00;4.85;;;4.90;99.90;;;;;;5090686;28;20035;-64
2020/12/27 19:09:11;;;;;;;10.82;5.95;;;4.90;99.90;;;;;;5105971;28;20020;-64
2020/12/27 19:11:37;;;;;;;4.03;3.03;;;4.90;99.90;;;;;;5093014;28;20484;-64
2020/12/27 19:14:04;;;;;;;6.93;3.58;;;4.70;99.90;;;;;;5087472;28;20027;-63
2020/12/27 19:16:30;;;;;;;3.30;2.78;;;4.90;99.90;;;;;;5093471;28;20534;-66
2020/12/27 19:18:56;;;;;;;5.65;2.72;;;4.90;99.90;;;;;;5093499;28;20023;-64
2020/12/27 19:21:21;;;;;;;3.38;2.88;;;4.90;99.90;;;;;;5092991;28;20029;-62
2020/12/27 19:23:47;;;;;;;3.00;2.42;;;4.80;99.90;;;;;;5084229;28;20088;-62
2020/12/27 19:26:22;;;;;;;6.93;3.10;;;4.90;99.90;;;;;;5084875;28;20028;-69
2020/12/27 19:28:49;;;;;;;4.85;2.83;;;4.80;99.90;;;;;;5085847;28;20020;-63
2020/12/27 19:31:15;;;;;;;3.83;2.67;;;4.90;99.90;;;;;;5103504;28;20019;-63
2020/12/27 19:33:42;;;;;;;6.18;2.83;;;5.00;99.90;;;;;;5097033;28;20035;-71
2020/12/27 19:36:09;;;;;;;5.65;2.65;;;4.90;99.90;;;;;;5097481;28;20012;-63